createdAt,value
2018-10-09T00:01:16.642Z,100619.20
2018-10-09T00:03:49.281Z,100615.22
2018-10-09T00:06:21.805Z,100616.67
2018-10-09T00:08:54.821Z,100608.97
2018-10-09T00:11:27.428Z,100608.39
2018-10-09T00:13:59.985Z,100600.85
2018-10-09T00:16:32.988Z,100595.37
2018-10-09T00:19:06.544Z,100590.52
2018-10-09T00:21:39.103Z,100585.30
2018-10-09T00:24:12.956Z,100584.80
2018-10-09T00:26:45.446Z,100588.19
2018-10-09T00:29:18.094Z,100593.30
2018-10-09T00:31:52.282Z,100592.39
2018-10-09T00:34:24.920Z,100586.30
2018-10-09T00:36:57.446Z,100579.39
2018-10-09T00:39:30.710Z,100568.84
2018-10-09T00:42:03.257Z,100562.47
2018-10-09T00:44:38.461Z,100560.89
2018-10-09T00:47:11.886Z,100561.53
2018-10-09T00:49:44.648Z,100563.73
2018-10-09T00:52:18.024Z,100565.33
2018-10-09T00:54:51.226Z,100577.73
2018-10-09T00:57:24.244Z,100585.26
2018-10-09T00:59:56.866Z,100586.72
2018-10-09T01:02:29.977Z,100586.83
2018-10-09T01:05:02.545Z,100580.80
2018-10-09T01:07:36.082Z,100580.66
2018-10-09T01:10:11.202Z,100580.16
2018-10-09T01:12:43.999Z,100578.56
2018-10-09T01:15:15.904Z,100583.35
2018-10-09T01:17:49.774Z,100586.87
2018-10-09T01:20:30.312Z,100590.04
2018-10-09T01:23:06.037Z,100585.59
2018-10-09T01:25:39.137Z,100578.31
2018-10-09T01:28:12.191Z,100579.67
2018-10-09T01:30:44.882Z,100584.78
2018-10-09T01:33:17.528Z,100589.02
2018-10-09T01:35:51.410Z,100586.33
2018-10-09T01:38:23.970Z,100590.34
2018-10-09T01:40:56.909Z,100589.30
2018-10-09T01:43:30.080Z,100599.50
2018-10-09T01:46:02.678Z,100593.41
2018-10-09T01:48:35.210Z,100592.73
2018-10-09T01:51:09.419Z,100588.99
2018-10-09T01:53:42.006Z,100589.69
2018-10-09T01:56:14.691Z,100597.45
2018-10-09T01:58:49.589Z,100598.88
2018-10-09T02:01:22.166Z,100601.66
2018-10-09T02:03:55.009Z,100603.34
2018-10-09T02:06:28.211Z,100610.46
2018-10-09T02:09:00.733Z,100616.47
2018-10-09T02:11:33.326Z,100618.34
2018-10-09T02:14:06.239Z,100617.41
2018-10-09T02:16:38.961Z,100611.48
2018-10-09T02:19:11.496Z,100606.56
2018-10-09T02:21:44.670Z,100599.50
2018-10-09T02:24:17.266Z,100598.11
2018-10-09T02:26:49.761Z,100590.75
2018-10-09T02:29:22.826Z,100590.20
2018-10-09T02:31:55.384Z,100593.52
2018-10-09T02:34:28.739Z,100589.05
2018-10-09T02:37:03.255Z,100593.03
2018-10-09T02:39:36.639Z,100591.38
2018-10-09T02:42:09.845Z,100594.42
2018-10-09T02:44:42.748Z,100594.30
2018-10-09T02:47:17.163Z,100591.77
2018-10-09T02:49:51.124Z,100589.41
2018-10-09T02:52:24.496Z,100584.75
2018-10-09T02:54:57.759Z,100581.81
2018-10-09T02:57:30.837Z,100572.16
2018-10-09T03:00:07.165Z,100562.22
2018-10-09T03:02:39.813Z,100553.03
2018-10-09T03:05:13.076Z,100553.57
2018-10-09T03:07:46.207Z,100551.63
2018-10-09T03:10:18.849Z,100547.51
2018-10-09T03:12:52.409Z,100538.99
2018-10-09T03:15:26.235Z,100526.92
2018-10-09T03:17:58.703Z,100529.29
2018-10-09T03:20:31.467Z,100521.48
2018-10-09T03:23:04.748Z,100517.20
2018-10-09T03:25:37.441Z,100513.84
2018-10-09T03:28:10.106Z,100513.08
2018-10-09T03:30:42.932Z,100512.91
2018-10-09T03:33:15.404Z,100509.30
2018-10-09T03:35:48.065Z,100507.19
2018-10-09T03:38:20.610Z,100510.78
2018-10-09T03:40:53.441Z,100514.73
2018-10-09T03:43:25.959Z,100512.02
2018-10-09T03:45:58.404Z,100510.54
2018-10-09T03:48:31.586Z,100508.28
2018-10-09T03:51:05.022Z,100507.02
2018-10-09T03:53:37.740Z,100508.41
2018-10-09T03:56:10.694Z,100509.31
2018-10-09T03:58:46.523Z,100510.63
2018-10-09T04:01:18.956Z,100520.27
2018-10-09T04:03:51.935Z,100514.66
2018-10-09T04:06:24.545Z,100516.13
2018-10-09T04:08:57.071Z,100518.61
2018-10-09T04:11:30.842Z,100521.38
2018-10-09T04:14:06.047Z,100518.58
2018-10-09T04:16:39.432Z,100516.59
2018-10-09T04:19:13.485Z,100512.86
2018-10-09T04:21:45.824Z,100514.83
2018-10-09T04:24:25.248Z,100518.89
2018-10-09T04:26:58.662Z,100517.55
2018-10-09T04:29:32.289Z,100517.53
2018-10-09T04:32:05.130Z,100520.22
2018-10-09T04:34:38.122Z,100523.43
2018-10-09T04:37:10.712Z,100521.05
2018-10-09T04:39:43.523Z,100525.84
2018-10-09T04:42:17.715Z,100532.03
2018-10-09T04:44:51.331Z,100522.89
2018-10-09T04:47:24.919Z,100525.16
2018-10-09T04:50:04.383Z,100526.04
2018-10-09T04:52:37.283Z,100528.65
2018-10-09T04:55:09.809Z,100526.17
2018-10-09T04:57:43.102Z,100530.89
2018-10-09T05:00:17.213Z,100532.34
2018-10-09T05:02:49.644Z,100532.91
2018-10-09T05:05:22.558Z,100529.11
2018-10-09T05:07:55.412Z,100536.63
2018-10-09T05:10:31.661Z,100533.67
2018-10-09T05:13:08.775Z,100538.34
2018-10-09T05:15:44.695Z,100539.28
2018-10-09T05:18:20.951Z,100538.43
2018-10-09T05:21:01.422Z,100539.00
2018-10-09T05:23:37.459Z,100542.44
2018-10-09T05:26:13.265Z,100541.22
2018-10-09T05:28:50.166Z,100542.81
2018-10-09T05:31:26.447Z,100541.41
2018-10-09T05:34:02.645Z,100538.19
2018-10-09T05:36:39.670Z,100544.38
2018-10-09T05:39:15.796Z,100540.12
2018-10-09T05:41:49.541Z,100549.33
2018-10-09T05:44:26.368Z,100553.91
2018-10-09T05:47:01.634Z,100559.42
2018-10-09T05:49:38.449Z,100561.64
2018-10-09T05:52:16.459Z,100562.35
2018-10-09T05:54:52.575Z,100564.01
2018-10-09T05:57:29.300Z,100568.95
2018-10-09T06:00:13.426Z,100566.47
2018-10-09T06:03:02.207Z,100571.59
2018-10-09T06:05:40.071Z,100575.53
2018-10-09T06:08:20.445Z,100574.13
2018-10-09T06:10:55.018Z,100578.11
2018-10-09T06:13:28.220Z,100578.91
2018-10-09T06:16:01.596Z,100585.56
2018-10-09T06:18:34.162Z,100587.02
2018-10-09T06:21:09.212Z,100585.75
2018-10-09T06:23:43.937Z,100597.62
2018-10-09T06:26:16.508Z,100596.48
2018-10-09T06:28:52.400Z,100594.52
2018-10-09T06:31:25.843Z,100596.90
2018-10-09T06:34:01.563Z,100608.92
2018-10-09T06:36:37.193Z,100602.29
2018-10-09T06:39:11.988Z,100600.45
2018-10-09T06:41:45.979Z,100605.69
2018-10-09T06:44:21.291Z,100612.05
2018-10-09T06:46:55.087Z,100610.25
2018-10-09T06:49:28.753Z,100611.55
2018-10-09T06:52:05.181Z,100614.98
2018-10-09T06:54:37.793Z,100612.76
2018-10-09T06:57:10.256Z,100617.88
2018-10-09T06:59:44.479Z,100607.73
2018-10-09T07:02:17.901Z,100609.86
2018-10-09T07:04:50.383Z,100610.45
2018-10-09T07:07:23.443Z,100613.59
2018-10-09T07:09:56.206Z,100611.33
2018-10-09T07:12:29.645Z,100615.12
2018-10-09T07:15:08.292Z,100609.96
2018-10-09T07:17:40.907Z,100608.83
2018-10-09T07:20:13.685Z,100612.60
2018-10-09T07:22:46.656Z,100615.53
2018-10-09T07:25:19.164Z,100607.89
2018-10-09T07:27:51.930Z,100617.84
2018-10-09T07:30:24.798Z,100622.91
2018-10-09T07:32:57.781Z,100626.53
2018-10-09T07:35:30.430Z,100626.27
2018-10-09T07:38:05.453Z,100631.70
2018-10-09T07:40:38.320Z,100632.86
2018-10-09T07:43:11.009Z,100638.00
2018-10-09T07:45:44.435Z,100638.79
2018-10-09T07:48:16.920Z,100633.50
2018-10-09T07:50:50.448Z,100632.70
2018-10-09T07:53:23.504Z,100637.28
2018-10-09T07:55:56.765Z,100639.66
2018-10-09T07:58:32.823Z,100648.38
2018-10-09T08:01:06.469Z,100652.33
2018-10-09T08:03:39.605Z,100650.73
2018-10-09T08:06:13.773Z,100650.86
2018-10-09T08:08:46.416Z,100652.20
2018-10-09T08:11:19.371Z,100651.70
2018-10-09T08:13:51.944Z,100651.90
2018-10-09T08:16:24.643Z,100648.70
2018-10-09T08:19:02.012Z,100649.88
2018-10-09T08:21:35.881Z,100653.70
2018-10-09T08:24:09.450Z,100654.23
2018-10-09T08:26:45.998Z,100657.63
2018-10-09T08:29:19.981Z,100658.86
2018-10-09T08:31:55.005Z,100658.26
2018-10-09T08:34:29.189Z,100665.61
2018-10-09T08:37:01.728Z,100656.30
2018-10-09T08:39:38.311Z,100660.31
2018-10-09T08:42:13.876Z,100663.34
2018-10-09T08:44:48.267Z,100670.59
2018-10-09T08:47:22.481Z,100672.38
2018-10-09T08:49:58.290Z,100667.33
2018-10-09T08:52:30.900Z,100668.59
2018-10-09T08:55:03.569Z,100674.11
2018-10-09T08:57:39.961Z,100673.58
2018-10-09T09:00:16.895Z,100677.34
2018-10-09T09:02:50.414Z,100671.94
2018-10-09T09:05:23.470Z,100675.24
2018-10-09T09:07:59.635Z,100672.98
2018-10-09T09:10:35.081Z,100665.42
2018-10-09T09:13:09.335Z,100665.34
2018-10-09T09:15:41.782Z,100660.53
2018-10-09T09:18:15.792Z,100658.03
2018-10-09T09:20:50.266Z,100657.59
2018-10-09T09:23:22.711Z,100654.70
2018-10-09T09:25:55.770Z,100656.18
2018-10-09T09:28:28.226Z,100654.52
2018-10-09T09:31:01.548Z,100660.17
2018-10-09T09:33:37.789Z,100658.73
2018-10-09T09:36:10.436Z,100657.61
2018-10-09T09:38:46.323Z,100660.56
2018-10-09T09:41:19.729Z,100655.39
2018-10-09T09:43:52.526Z,100652.65
2018-10-09T09:46:34.013Z,100650.27
2018-10-09T09:49:06.608Z,100647.02
2018-10-09T09:51:40.827Z,100646.73
2018-10-09T09:54:14.527Z,100648.09
2018-10-09T09:56:47.167Z,100646.09
2018-10-09T09:59:19.731Z,100644.90
2018-10-09T10:01:52.784Z,100642.33
2018-10-09T10:04:27.915Z,100644.16
2018-10-09T10:07:01.808Z,100644.22
2018-10-09T10:09:40.865Z,100647.27
2018-10-09T10:12:14.577Z,100642.39
2018-10-09T10:14:50.201Z,100643.06
2018-10-09T10:17:24.118Z,100636.07
2018-10-09T10:19:56.911Z,100633.12
2018-10-09T10:22:29.974Z,100629.81
2018-10-09T10:25:02.492Z,100626.22
2018-10-09T10:27:36.284Z,100629.43
2018-10-09T10:30:10.359Z,100629.39
2018-10-09T10:32:46.687Z,100631.66
2018-10-09T10:35:19.460Z,100631.02
2018-10-09T10:37:52.572Z,100634.23
2018-10-09T10:40:30.820Z,100631.00
2018-10-09T10:43:04.765Z,100627.08
2018-10-09T10:45:42.455Z,100627.66
2018-10-09T10:48:15.388Z,100624.99
2018-10-09T10:50:48.946Z,100624.54
2018-10-09T10:53:21.570Z,100622.75
2018-10-09T10:55:54.212Z,100628.72
2018-10-09T10:58:27.100Z,100619.63
2018-10-09T11:01:00.101Z,100620.68
2018-10-09T11:03:33.826Z,100614.47
2018-10-09T11:06:06.680Z,100614.05
2018-10-09T11:08:43.861Z,100614.14
2018-10-09T11:11:19.691Z,100610.88
2018-10-09T11:13:52.276Z,100613.08
2018-10-09T11:16:26.077Z,100612.76
2018-10-09T11:19:02.462Z,100609.16
2018-10-09T11:21:35.059Z,100611.36
2018-10-09T11:24:13.368Z,100612.98
2018-10-09T11:26:49.164Z,100614.23
2018-10-09T11:29:24.192Z,100612.02
2018-10-09T11:32:05.063Z,100613.78
2018-10-09T11:34:38.946Z,100614.25
2018-10-09T11:37:17.152Z,100605.73
2018-10-09T11:39:49.743Z,100604.78
2018-10-09T11:42:24.077Z,100600.25
2018-10-09T11:45:00.187Z,100594.81
2018-10-09T11:47:34.767Z,100591.97
2018-10-09T11:50:09.767Z,100589.08
2018-10-09T11:52:43.512Z,100586.63
2018-10-09T11:55:16.997Z,100576.41
2018-10-09T11:57:51.264Z,100574.42
2018-10-09T12:00:24.061Z,100572.47
2018-10-09T12:02:57.747Z,100569.91
2018-10-09T12:05:31.446Z,100565.98
2018-10-09T12:08:08.235Z,100564.30
2018-10-09T12:10:41.625Z,100560.44
2018-10-09T12:13:15.995Z,100562.67
2018-10-09T12:15:53.357Z,100562.07
2018-10-09T12:18:25.897Z,100559.21
2018-10-09T12:20:59.428Z,100558.58
2018-10-09T12:23:34.886Z,100553.30
2018-10-09T12:26:10.072Z,100548.89
2018-10-09T12:28:43.934Z,100540.70
2018-10-09T12:31:18.867Z,100540.00
2018-10-09T12:33:54.973Z,100535.63
2018-10-09T12:36:29.894Z,100534.63
2018-10-09T12:39:12.664Z,100536.91
2018-10-09T12:41:48.309Z,100544.63
2018-10-09T12:44:26.285Z,100536.36
2018-10-09T12:46:59.548Z,100526.95
2018-10-09T12:49:33.707Z,100517.96
2018-10-09T12:52:08.544Z,100521.25
2018-10-09T12:54:42.933Z,100524.52
2018-10-09T12:57:15.749Z,100524.81
2018-10-09T12:59:51.739Z,100519.14
2018-10-09T13:02:26.947Z,100516.62
2018-10-09T13:05:02.317Z,100510.08
2018-10-09T13:07:37.877Z,100510.67
2018-10-09T13:10:12.581Z,100506.27
2018-10-09T13:12:46.410Z,100504.75
2018-10-09T13:15:21.929Z,100503.84
2018-10-09T13:17:55.248Z,100508.23
2018-10-09T13:20:30.180Z,100508.49
2018-10-09T13:23:06.440Z,100508.86
2018-10-09T13:25:40.481Z,100508.46
2018-10-09T13:28:14.594Z,100509.27
2018-10-09T13:30:49.219Z,100507.45
2018-10-09T13:33:22.620Z,100502.77
2018-10-09T13:35:56.974Z,100505.11
2018-10-09T13:38:31.707Z,100499.05
2018-10-09T13:41:12.141Z,100494.47
2018-10-09T13:43:47.999Z,100493.12
2018-10-09T13:46:23.146Z,100495.89
2018-10-09T13:48:56.599Z,100503.81
2018-10-09T13:51:32.299Z,100506.62
2018-10-09T13:54:07.373Z,100502.95
2018-10-09T13:56:43.402Z,100503.62
2018-10-09T13:59:16.525Z,100503.59
2018-10-09T14:01:49.425Z,100502.20
2018-10-09T14:04:24.035Z,100497.16
2018-10-09T14:06:56.716Z,100496.81
2018-10-09T14:09:29.635Z,100500.55
2018-10-09T14:12:02.720Z,100498.50
2018-10-09T14:14:35.949Z,100497.15
2018-10-09T14:17:09.148Z,100498.42
2018-10-09T14:19:43.719Z,100492.40
2018-10-09T14:22:16.337Z,100494.27
2018-10-09T14:24:51.886Z,100498.83
2018-10-09T14:27:24.976Z,100494.13
2018-10-09T14:29:57.491Z,100493.36
2018-10-09T14:32:30.035Z,100485.89
2018-10-09T14:35:04.409Z,100486.17
2018-10-09T14:37:36.968Z,100485.91
2018-10-09T14:40:10.473Z,100486.66
2018-10-09T14:42:45.802Z,100485.12
2018-10-09T14:45:19.166Z,100478.05
2018-10-09T14:47:52.166Z,100474.45
2018-10-09T14:50:25.033Z,100469.64
2018-10-09T14:53:00.078Z,100470.02
2018-10-09T14:55:33.550Z,100467.60
2018-10-09T14:58:08.368Z,100469.28
2018-10-09T15:00:40.913Z,100470.86
2018-10-09T15:03:14.376Z,100474.25
2018-10-09T15:05:48.217Z,100470.70
2018-10-09T15:08:22.478Z,100474.95
2018-10-09T15:10:54.931Z,100480.89
2018-10-09T15:13:28.873Z,100483.72
2018-10-09T15:16:02.507Z,100482.41
2018-10-09T15:18:36.068Z,100477.92
2018-10-09T15:21:10.498Z,100481.13
2018-10-09T15:23:44.189Z,100481.82
2018-10-09T15:26:17.604Z,100483.98
2018-10-09T15:28:50.388Z,100481.72
2018-10-09T15:31:26.282Z,100483.67
2018-10-09T15:34:00.679Z,100478.87
2018-10-09T15:36:36.000Z,100480.16
2018-10-09T15:39:11.628Z,100479.69
2018-10-09T15:41:45.508Z,100480.86
2018-10-09T15:44:19.804Z,100480.97
2018-10-09T15:46:53.666Z,100485.63
2018-10-09T15:49:31.588Z,100480.38
2018-10-09T15:52:09.621Z,100486.91
2018-10-09T15:54:46.971Z,100478.76
2018-10-09T15:57:21.915Z,100481.23
2018-10-09T15:59:57.541Z,100480.30
2018-10-09T16:02:32.885Z,100480.90
2018-10-09T16:05:07.912Z,100483.81
2018-10-09T16:07:42.737Z,100478.95
2018-10-09T16:10:18.788Z,100477.58
2018-10-09T16:12:56.799Z,100482.59
2018-10-09T16:15:31.305Z,100479.04
2018-10-09T16:18:09.329Z,100478.36
2018-10-09T16:20:42.482Z,100485.88
2018-10-09T16:23:18.018Z,100485.33
2018-10-09T16:25:54.865Z,100480.58
2018-10-09T16:28:30.560Z,100484.69
2018-10-09T16:31:05.660Z,100488.53
2018-10-09T16:33:39.907Z,100492.20
2018-10-09T16:36:16.049Z,100489.16
2018-10-09T16:38:49.459Z,100489.77
2018-10-09T16:41:29.732Z,100489.48
2018-10-09T16:44:07.488Z,100489.02
2018-10-09T16:46:42.960Z,100490.67
2018-10-09T16:49:21.627Z,100492.73
2018-10-09T16:52:07.089Z,100496.34
2018-10-09T16:54:42.103Z,100499.16
2018-10-09T16:57:15.617Z,100500.88
2018-10-09T16:59:50.551Z,100508.74
2018-10-09T17:02:25.578Z,100504.05
2018-10-09T17:04:58.015Z,100505.34
2018-10-09T17:07:31.045Z,100509.97
2018-10-09T17:10:04.988Z,100511.05
2018-10-09T17:12:44.860Z,100510.27
2018-10-09T17:15:17.381Z,100509.38
2018-10-09T17:17:54.492Z,100515.02
2018-10-09T17:20:27.239Z,100517.45
2018-10-09T17:23:03.283Z,100516.50
2018-10-09T17:25:37.941Z,100524.78
2018-10-09T17:28:11.596Z,100523.70
2018-10-09T17:30:45.056Z,100522.19
2018-10-09T17:33:19.833Z,100526.30
2018-10-09T17:35:54.490Z,100527.97
2018-10-09T17:38:29.340Z,100526.34
2018-10-09T17:41:01.964Z,100527.67
2018-10-09T17:43:37.532Z,100524.95
2018-10-09T17:46:11.565Z,100530.19
2018-10-09T17:48:44.937Z,100530.38
2018-10-09T17:51:18.981Z,100532.01
2018-10-09T17:53:52.347Z,100530.69
2018-10-09T17:56:28.683Z,100530.94
2018-10-09T17:59:03.568Z,100536.26
2018-10-09T18:01:38.773Z,100538.84
2018-10-09T18:04:12.237Z,100538.06
2018-10-09T18:06:46.812Z,100539.77
2018-10-09T18:09:21.305Z,100536.20
2018-10-09T18:11:56.929Z,100534.73
2018-10-09T18:14:32.690Z,100543.79
2018-10-09T18:17:09.824Z,100543.36
2018-10-09T18:19:45.071Z,100541.69
2018-10-09T18:22:19.490Z,100545.20
2018-10-09T18:24:54.698Z,100544.12
2018-10-09T18:27:29.508Z,100547.30
2018-10-09T18:30:05.193Z,100546.88
2018-10-09T18:32:37.840Z,100550.27
2018-10-09T18:35:12.417Z,100551.17
2018-10-09T18:37:44.981Z,100551.80
2018-10-09T18:40:18.002Z,100547.88
2018-10-09T18:42:52.533Z,100553.55
2018-10-09T18:45:26.615Z,100555.77
2018-10-09T18:48:02.034Z,100559.86
2018-10-09T18:50:35.104Z,100559.85
2018-10-09T18:53:08.064Z,100562.05
2018-10-09T18:55:43.297Z,100560.58
2018-10-09T18:58:18.027Z,100557.91
2018-10-09T19:00:56.388Z,100557.69
2018-10-09T19:03:29.303Z,100557.25
2018-10-09T19:06:10.121Z,100559.94
2018-10-09T19:08:46.444Z,100560.56
2018-10-09T19:11:26.406Z,100556.75
2018-10-09T19:14:00.332Z,100561.11
2018-10-09T19:16:48.452Z,100562.11
2018-10-09T19:19:37.781Z,100559.03
2018-10-09T19:22:19.379Z,100556.94
2018-10-09T19:24:53.254Z,100564.48
2018-10-09T19:27:26.780Z,100561.11
2018-10-09T19:30:22.693Z,100562.93
2018-10-09T19:32:58.934Z,100564.58
2018-10-09T19:35:34.069Z,100563.11
2018-10-09T19:38:10.185Z,100561.77
2018-10-09T19:40:52.806Z,100563.11
2018-10-09T19:43:29.564Z,100568.74
2018-10-09T19:46:03.842Z,100564.33
2018-10-09T19:48:39.386Z,100565.00
2018-10-09T19:51:14.073Z,100562.02
2018-10-09T19:53:46.760Z,100570.77
2018-10-09T19:56:21.979Z,100570.90
2018-10-09T19:58:55.797Z,100568.98
2018-10-09T20:01:31.331Z,100572.72
2018-10-09T20:04:08.180Z,100573.55
2018-10-09T20:06:41.988Z,100575.94
2018-10-09T20:09:15.457Z,100578.64
2018-10-09T20:11:49.974Z,100570.37
2018-10-09T20:14:25.388Z,100572.27
2018-10-09T20:16:59.258Z,100574.86
2018-10-09T20:19:37.459Z,100569.58
2018-10-09T20:22:13.070Z,100572.08
2018-10-09T20:24:48.114Z,100566.02
2018-10-09T20:27:26.442Z,100571.63
2018-10-09T20:30:00.146Z,100570.31
2018-10-09T20:32:35.019Z,100571.83
2018-10-09T20:35:09.079Z,100568.80
2018-10-09T20:37:44.292Z,100572.44
2018-10-09T20:40:17.708Z,100565.59
2018-10-09T20:42:54.178Z,100564.44
2018-10-09T20:45:28.738Z,100566.23
2018-10-09T20:48:01.947Z,100564.77
2018-10-09T20:50:38.383Z,100568.91
2018-10-09T20:53:13.618Z,100567.94
2018-10-09T20:55:48.832Z,100567.61
2018-10-09T20:58:27.431Z,100570.23
2018-10-09T21:01:01.693Z,100568.97
2018-10-09T21:03:39.086Z,100566.00
2018-10-09T21:06:14.137Z,100571.38
2018-10-09T21:08:47.917Z,100573.55
2018-10-09T21:11:25.278Z,100572.55
2018-10-09T21:13:59.305Z,100571.40
2018-10-09T21:16:41.839Z,100569.91
2018-10-09T21:19:22.267Z,100570.61
2018-10-09T21:21:56.687Z,100568.20
2018-10-09T21:24:30.831Z,100569.31
2018-10-09T21:27:05.812Z,100560.49
2018-10-09T21:29:41.363Z,100566.58
2018-10-09T21:32:14.647Z,100571.13
2018-10-09T21:34:49.436Z,100571.72
2018-10-09T21:37:24.050Z,100566.35
2018-10-09T21:39:57.569Z,100571.83
2018-10-09T21:42:31.314Z,100567.19
2018-10-09T21:45:07.860Z,100564.64
2018-10-09T21:47:47.038Z,100568.59
2018-10-09T21:50:20.898Z,100568.80
2018-10-09T21:52:54.069Z,100564.47
2018-10-09T21:55:30.108Z,100565.58
2018-10-09T21:58:03.158Z,100558.18
2018-10-09T22:00:42.800Z,100556.29
2018-10-09T22:03:17.452Z,100556.58
2018-10-09T22:05:51.646Z,100557.70
2018-10-09T22:08:26.447Z,100553.27
2018-10-09T22:10:59.585Z,100556.02
2018-10-09T22:13:33.737Z,100556.59
2018-10-09T22:16:12.837Z,100558.37
2018-10-09T22:18:47.008Z,100556.81
2018-10-09T22:21:20.754Z,100557.95
2018-10-09T22:23:55.157Z,100558.00
2018-10-09T22:26:28.250Z,100555.75
2018-10-09T22:29:01.123Z,100551.45
2018-10-09T22:31:35.187Z,100551.91
2018-10-09T22:34:08.715Z,100547.04
2018-10-09T22:36:58.320Z,100547.49
2018-10-09T22:39:33.291Z,100549.18
2018-10-09T22:42:08.095Z,100542.56
2018-10-09T22:44:41.564Z,100545.16
2018-10-09T22:47:16.791Z,100545.53
2018-10-09T22:49:51.420Z,100539.92
2018-10-09T22:52:25.822Z,100545.83
2018-10-09T22:54:59.661Z,100542.39
2018-10-09T22:57:33.041Z,100544.20
2018-10-09T23:00:12.764Z,100541.87
2018-10-09T23:02:45.800Z,100544.32
2018-10-09T23:05:19.532Z,100549.27
2018-10-09T23:07:53.998Z,100544.25
2018-10-09T23:10:27.258Z,100547.74
2018-10-09T23:13:00.870Z,100544.19
2018-10-09T23:15:34.668Z,100542.52
2018-10-09T23:18:07.978Z,100542.80
2018-10-09T23:20:41.172Z,100545.06
2018-10-09T23:23:15.533Z,100541.91
2018-10-09T23:25:50.041Z,100541.70
2018-10-09T23:28:22.767Z,100544.72
2018-10-09T23:30:59.998Z,100550.44
2018-10-09T23:33:34.312Z,100549.52
2018-10-09T23:36:07.338Z,100549.84
2018-10-09T23:38:41.435Z,100550.22
2018-10-09T23:41:14.298Z,100550.94
2018-10-09T23:43:48.477Z,100547.80
2018-10-09T23:46:22.933Z,100542.64
2018-10-09T23:48:55.956Z,100538.85
2018-10-09T23:51:29.176Z,100533.98
2018-10-09T23:54:03.491Z,100533.98
2018-10-09T23:56:37.329Z,100532.77
2018-10-09T23:59:10.984Z,100531.87
